Time;durP1;ratioP1;P1;durP2;ratioP2;P2;SDS_P1;SDS_P2;PMS_P1;PMS_P2;Temp;Humidity;BMP_temperature;BMP_pressure;BME280_temperature;BME280_humidity;BME280_pressure;Samples;Min_cycle;Max_cycle;Signal;HPM_P1;HPM_P2
2022/06/14 00:01:45;;;;;;;4.80;1.10;;;;;;;12.88;83.69;101357.31;5208156;28;20047;-72
2022/06/14 00:04:16;;;;;;;4.50;1.00;;;;;;;12.52;85.96;101361.13;5213124;28;20037;-72
2022/06/14 00:06:46;;;;;;;5.45;1.10;;;;;;;12.35;85.13;101363.38;5214149;28;20443;-72
2022/06/14 00:09:17;;;;;;;3.78;1.00;;;;;;;12.33;86.88;101357.31;5194982;28;20033;-71
2022/06/14 00:11:47;;;;;;;4.22;1.00;;;;;;;12.32;87.82;101362.63;5180812;28;20204;-72
2022/06/14 00:14:19;;;;;;;2.22;0.80;;;;;;;12.29;87.03;101366.19;5213544;28;20060;-71
2022/06/14 00:16:49;;;;;;;6.07;1.27;;;;;;;12.33;87.19;101361.72;5212552;28;20021;-72
2022/06/14 00:19:19;;;;;;;4.22;1.20;;;;;;;12.13;88.08;101357.03;5213564;28;20028;-72
2022/06/14 00:21:50;;;;;;;4.00;1.17;;;;;;;12.26;86.62;101374.13;5213586;28;20041;-71
2022/06/14 00:24:20;;;;;;;4.80;1.20;;;;;;;12.22;88.13;101372.50;5212460;28;20029;-71
2022/06/14 00:26:50;;;;;;;3.92;1.10;;;;;;;12.24;87.28;101380.31;5212654;28;20113;-72
2022/06/14 00:29:21;;;;;;;7.80;1.45;;;;;;;11.89;88.96;101378.72;5206083;28;20057;-71
2022/06/14 00:31:51;;;;;;;4.03;1.23;;;;;;;11.84;90.39;101385.84;5207777;28;20107;-71
2022/06/14 00:34:21;;;;;;;5.60;1.20;;;;;;;11.87;88.70;101385.78;5212001;28;20037;-72
2022/06/14 00:36:55;;;;;;;6.65;1.35;;;;;;;11.61;90.85;101384.75;5211880;28;20083;-71
2022/06/14 00:39:26;;;;;;;3.58;1.17;;;;;;;11.36;93.02;101386.25;5199675;28;20038;-71
2022/06/14 00:41:57;;;;;;;3.60;1.13;;;;;;;11.18;94.04;101382.38;5205426;28;20025;-72
2022/06/14 00:44:28;;;;;;;8.75;1.42;;;;;;;11.37;94.37;101383.63;5211488;28;20439;-72
2022/06/14 00:47:03;;;;;;;5.63;1.45;;;;;;;11.55;90.80;101377.03;5213458;28;20521;-71
2022/06/14 00:50:04;;;;;;;5.50;1.20;;;;;;;11.51;91.70;101376.25;5211144;28;20037;-71
2022/06/14 00:52:37;;;;;;;6.20;1.23;;;;;;;11.50;91.04;101373.69;5176254;28;20048;-72
2022/06/14 00:55:11;;;;;;;3.45;1.10;;;;;;;11.45;90.49;101371.16;5206589;28;20083;-72
2022/06/14 00:57:49;;;;;;;4.47;1.10;;;;;;;11.22;92.52;101378.78;5213456;28;20093;-71
2022/06/14 01:00:26;;;;;;;4.32;1.25;;;;;;;11.31;92.17;101375.06;5200994;28;20029;-72
2022/06/14 01:03:02;;;;;;;3.83;1.30;;;;;;;11.30;91.66;101384.66;5210995;28;20412;-72
2022/06/14 01:06:05;;;;;;;3.78;1.05;;;;;;;11.24;91.87;101397.91;5213863;28;20478;-72
2022/06/14 01:08:44;;;;;;;5.78;1.05;;;;;;;11.45;90.80;101386.88;5214102;28;20033;-72
2022/06/14 01:11:24;;;;;;;5.30;1.20;;;;;;;11.33;91.06;101392.44;5208420;28;20578;-72
2022/06/14 01:13:54;;;;;;;4.40;1.33;;;;;;;11.24;90.69;101400.53;5214017;28;20027;-72
2022/06/14 01:16:25;;;;;;;4.53;1.42;;;;;;;11.24;90.24;101400.53;5211679;28;20017;-72
2022/06/14 01:18:55;;;;;;;6.18;1.65;;;;;;;11.17;90.82;101403.31;5212253;28;20030;-72
2022/06/14 01:21:26;;;;;;;7.10;1.80;;;;;;;11.34;91.13;101391.56;5211688;28;20111;-71
2022/06/14 01:23:56;;;;;;;7.30;1.70;;;;;;;11.29;89.72;101393.41;5212689;28;20028;-72
2022/06/14 01:26:29;;;;;;;5.85;1.60;;;;;;;11.19;90.50;101384.09;5210962;28;20036;-72
2022/06/14 01:29:03;;;;;;;9.18;2.05;;;;;;;11.04;89.64;101388.81;5188358;28;20387;-72
2022/06/14 01:31:34;;;;;;;7.72;1.90;;;;;;;10.76;91.17;101389.50;5206029;28;20544;-71
2022/06/14 01:34:08;;;;;;;3.90;1.45;;;;;;;10.44;95.51;101386.78;5210205;28;20029;-71
2022/06/14 01:36:39;;;;;;;5.47;1.40;;;;;;;10.20;95.30;101384.69;5205623;28;20045;-71
2022/06/14 01:39:14;;;;;;;2.95;1.13;;;;;;;10.04;97.06;101383.28;5213305;28;20104;-71
2022/06/14 01:42:00;;;;;;;4.57;1.20;;;;;;;10.13;97.65;101383.13;5211049;28;20409;-71
2022/06/14 01:44:56;;;;;;;5.47;1.15;;;;;;;10.26;95.74;101380.22;5210946;28;20537;-72
2022/06/14 01:47:54;;;;;;;4.32;1.13;;;;;;;10.43;94.40;101390.28;5210444;28;20499;-72
2022/06/14 01:53:41;;;;;;;5.25;1.02;;;;;;;10.44;96.16;101394.59;5212955;28;20098;-72
2022/06/14 01:56:35;;;;;;;8.05;1.45;;;;;;;10.48;95.15;101391.91;5206131;28;20106;-70
2022/06/14 01:59:23;;;;;;;5.80;1.58;;;;;;;10.54;94.04;101385.69;5205553;28;20506;-72
2022/06/14 02:02:03;;;;;;;6.20;1.40;;;;;;;10.18;95.69;101391.72;5209958;28;20036;-71
2022/06/14 02:04:39;;;;;;;5.88;1.33;;;;;;;10.02;100.00;101401.59;5209849;28;20033;-71
2022/06/14 02:07:18;;;;;;;4.80;1.10;;;;;;;9.90;99.51;101401.81;5205907;28;20605;-71
2022/06/14 02:10:15;;;;;;;6.18;1.10;;;;;;;9.64;99.40;101400.59;5212150;28;20082;-71
2022/06/14 02:12:46;;;;;;;5.47;1.10;;;;;;;9.63;99.98;101396.28;5207314;28;20529;-71
2022/06/14 02:15:25;;;;;;;3.17;1.10;;;;;;;9.74;99.18;101400.41;5211593;28;20029;-72
2022/06/14 02:18:01;;;;;;;7.90;1.35;;;;;;;9.73;100.00;101392.59;5211070;28;20029;-72
2022/06/14 02:20:38;;;;;;;3.55;1.10;;;;;;;9.70;100.00;101395.25;5209527;28;20533;-71
2022/06/14 02:23:09;;;;;;;3.47;1.20;;;;;;;9.85;100.00;101381.91;5199295;28;20033;-71
2022/06/14 02:25:50;;;;;;;3.95;1.20;;;;;;;9.85;99.91;101377.53;5212557;28;20036;-72
2022/06/14 02:28:28;;;;;;;5.30;1.30;;;;;;;9.54;100.00;101375.56;5226834;22;20046;-72
2022/06/14 02:31:04;;;;;;;4.15;1.10;;;;;;;9.56;100.00;101373.78;5210565;28;20025;-72
2022/06/14 02:33:47;;;;;;;7.38;1.38;;;;;;;9.62;100.00;101376.28;5211492;28;20029;-73
2022/06/14 02:36:23;;;;;;;3.88;1.30;;;;;;;9.53;100.00;101381.66;5185161;28;20036;-73
2022/06/14 02:38:59;;;;;;;4.63;1.30;;;;;;;9.63;100.00;101384.06;5203222;28;20498;-73
2022/06/14 02:41:36;;;;;;;3.95;1.13;;;;;;;9.56;100.00;101382.47;5203269;28;20053;-73
2022/06/14 02:44:15;;;;;;;4.00;1.40;;;;;;;9.77;100.00;101395.13;5187706;28;20033;-73
2022/06/14 02:46:53;;;;;;;3.25;1.23;;;;;;;9.74;100.00;101389.97;5161628;28;20022;-72
2022/06/14 02:49:41;;;;;;;4.57;1.15;;;;;;;9.78;100.00;101394.22;5167065;28;20488;-73
2022/06/14 02:52:27;;;;;;;5.57;1.40;;;;;;;10.11;99.44;101384.88;5203230;28;20025;-73
2022/06/14 02:55:07;;;;;;;4.57;1.23;;;;;;;9.95;99.27;101389.53;5202952;28;20021;-73
2022/06/14 02:57:50;;;;;;;5.55;1.40;;;;;;;9.89;99.86;101404.44;5184440;28;20040;-74
2022/06/14 03:00:28;;;;;;;4.90;1.40;;;;;;;9.67;100.00;101400.53;5165023;28;20087;-72
2022/06/14 03:03:13;;;;;;;4.82;1.33;;;;;;;9.61;100.00;101403.25;5203762;28;20021;-73
2022/06/14 03:06:08;;;;;;;8.55;1.60;;;;;;;9.62;100.00;101407.59;5171228;28;20490;-73
2022/06/14 03:08:50;;;;;;;4.50;1.40;;;;;;;9.54;100.00;101401.66;5202345;28;20108;-73
2022/06/14 03:11:57;;;;;;;4.32;1.25;;;;;;;9.45;100.00;101407.06;5184829;28;20554;-73
2022/06/14 03:14:44;;;;;;;3.05;1.10;;;;;;;9.38;100.00;101405.41;5198292;28;20487;-74
2022/06/14 03:17:23;;;;;;;4.05;1.27;;;;;;;9.40;100.00;101407.13;5198977;28;20025;-72
2022/06/14 03:20:05;;;;;;;4.07;1.55;;;;;;;9.19;100.00;101406.63;5202938;28;20029;-72
2022/06/14 03:22:38;;;;;;;8.95;1.67;;;;;;;9.08;100.00;101403.31;5202751;28;20033;-72
2022/06/14 03:25:21;;;;;;;5.40;1.27;;;;;;;9.12;100.00;101405.00;5184720;28;20482;-71
2022/06/14 03:28:04;;;;;;;3.97;1.48;;;;;;;9.35;100.00;101402.88;5199586;28;20056;-72
2022/06/14 03:30:50;;;;;;;5.40;1.40;;;;;;;9.18;100.00;101408.34;5186507;28;20030;-73
2022/06/14 03:33:46;;;;;;;5.40;1.40;;;;;;;9.35;100.00;101397.66;5198412;28;20033;-72
2022/06/14 03:36:17;;;;;;;4.05;1.30;;;;;;;9.49;100.00;101399.13;5184276;28;20083;-73
2022/06/14 03:38:52;;;;;;;3.92;1.30;;;;;;;9.37;100.00;101403.69;5202477;28;20017;-72
2022/06/14 03:41:31;;;;;;;4.63;1.40;;;;;;;8.89;100.00;101407.09;5202262;28;20116;-73
2022/06/14 03:44:03;;;;;;;3.50;1.33;;;;;;;9.07;100.00;101409.41;5194047;28;20022;-72
2022/06/14 03:46:39;;;;;;;4.57;1.40;;;;;;;9.21;100.00;101403.13;5175145;28;20120;-73
2022/06/14 03:49:13;;;;;;;5.80;1.60;;;;;;;9.21;100.00;101410.06;5193729;28;20021;-71
2022/06/14 03:52:03;;;;;;;3.38;1.30;;;;;;;9.51;100.00;101397.34;5200956;28;20021;-72
2022/06/14 03:54:53;;;;;;;4.65;1.58;;;;;;;9.47;100.00;101410.50;5201293;28;20033;-72
2022/06/14 03:57:48;;;;;;;4.15;1.40;;;;;;;9.61;100.00;101408.47;5196635;28;20030;-71
2022/06/14 04:00:36;;;;;;;6.47;1.30;;;;;;;9.59;100.00;101410.25;5196363;28;20113;-72
2022/06/14 04:03:49;;;;;;;5.82;1.65;;;;;;;9.74;100.00;101418.66;5196877;28;20037;-72
2022/06/14 04:06:37;;;;;;;4.97;1.50;;;;;;;9.87;100.00;101414.06;5187832;28;20073;-73
2022/06/14 04:09:07;;;;;;;5.15;1.50;;;;;;;9.99;100.00;101412.06;5180039;28;20072;-73
2022/06/14 04:12:05;;;;;;;5.22;1.48;;;;;;;9.92;100.00;101423.53;5205297;28;20025;-71
2022/06/14 04:14:59;;;;;;;3.97;1.48;;;;;;;10.30;100.00;101422.78;5204215;28;20020;-73
2022/06/14 04:17:52;;;;;;;7.10;1.70;;;;;;;10.59;100.00;101420.41;5187832;28;20068;-73
2022/06/14 04:20:31;;;;;;;5.32;1.48;;;;;;;10.69;99.23;101414.09;5202548;28;20029;-73
2022/06/14 04:23:16;;;;;;;5.50;1.40;;;;;;;10.83;100.00;101414.66;5207041;28;20410;-73
2022/06/14 04:25:54;;;;;;;4.63;1.50;;;;;;;10.78;100.00;101406.03;5189090;28;20120;-73
2022/06/14 04:28:48;;;;;;;6.43;1.77;;;;;;;10.90;100.00;101410.97;5205572;28;20037;-73
2022/06/14 04:31:28;;;;;;;8.77;1.98;;;;;;;11.11;100.00;101412.19;5189885;28;20388;-73
2022/06/14 04:34:16;;;;;;;8.75;2.08;;;;;;;11.65;100.00;101397.72;5205083;28;20029;-73
2022/06/14 04:36:55;;;;;;;4.88;1.70;;;;;;;11.96;97.29;101400.38;5206192;28;20030;-73
2022/06/14 04:39:34;;;;;;;6.15;1.60;;;;;;;12.06;97.09;101397.44;5206190;28;20483;-73
2022/06/14 04:42:15;;;;;;;10.73;2.17;;;;;;;12.06;98.70;101405.31;5206769;28;20025;-73
2022/06/14 04:45:10;;;;;;;4.40;1.40;;;;;;;12.20;97.04;101403.16;5195947;28;20080;-73
2022/06/14 04:47:47;;;;;;;7.55;2.10;;;;;;;11.84;100.00;101403.31;5185756;28;20072;-73
2022/06/14 04:50:23;;;;;;;5.97;1.70;;;;;;;12.00;100.00;101402.00;5187553;28;20105;-73
2022/06/14 04:53:01;;;;;;;5.47;1.77;;;;;;;12.34;97.75;101410.59;5191947;28;20612;-74
2022/06/14 04:55:37;;;;;;;5.97;1.65;;;;;;;12.66;97.25;101408.72;5204703;28;20107;-73
2022/06/14 04:58:39;;;;;;;5.60;1.52;;;;;;;12.21;99.31;101410.13;5187087;28;20026;-74
2022/06/14 05:01:19;;;;;;;5.20;1.58;;;;;;;12.51;96.63;101398.72;5173493;28;20524;-74
2022/06/14 05:03:57;;;;;;;4.53;1.52;;;;;;;11.94;100.00;101405.63;5206415;28;20025;-74
2022/06/14 05:06:56;;;;;;;4.70;1.70;;;;;;;12.11;100.00;101408.66;5206200;28;20029;-73
2022/06/14 05:09:33;;;;;;;4.75;1.70;;;;;;;12.26;100.00;101404.75;5205847;28;20078;-74
2022/06/14 05:12:18;;;;;;;6.05;1.67;;;;;;;12.57;100.00;101406.41;5206115;28;20082;-75
2022/06/14 05:15:07;;;;;;;4.43;1.47;;;;;;;12.77;98.80;101404.00;5188091;28;20101;-73
2022/06/14 05:17:53;;;;;;;7.28;1.90;;;;;;;12.41;98.99;101415.63;5185172;28;20034;-74
2022/06/14 05:20:35;;;;;;;5.78;1.80;;;;;;;12.87;98.17;101412.47;5186271;28;20040;-74
2022/06/14 05:23:09;;;;;;;5.70;1.50;;;;;;;13.30;97.70;101413.66;5206558;28;20025;-74
2022/06/14 05:25:54;;;;;;;6.05;1.48;;;;;;;13.81;96.14;101422.41;5205261;28;20547;-74
2022/06/14 05:28:44;;;;;;;5.25;1.70;;;;;;;14.55;91.16;101426.66;5195556;28;20052;-74
2022/06/14 05:31:37;;;;;;;5.88;1.88;;;;;;;14.31;91.78;101424.09;5194009;28;20482;-73
2022/06/14 05:34:33;;;;;;;5.65;1.63;;;;;;;14.62;91.44;101424.66;5172336;28;20029;-73
2022/06/14 05:37:14;;;;;;;7.03;1.88;;;;;;;14.16;92.57;101429.91;5203626;28;20041;-73
2022/06/14 05:40:36;;;;;;;5.47;1.25;;;;;;;14.48;92.91;101429.56;5181930;28;20669;-74
2022/06/14 05:43:26;;;;;;;6.78;1.63;;;;;;;14.92;90.45;101427.81;5174152;28;20483;-74
2022/06/14 05:46:11;;;;;;;6.28;1.88;;;;;;;15.38;89.97;101422.41;5191185;28;20406;-74
2022/06/14 05:48:48;;;;;;;4.32;1.63;;;;;;;14.84;91.49;101424.59;5199113;28;20030;-74
2022/06/14 05:51:24;;;;;;;5.45;1.60;;;;;;;15.03;91.08;101422.94;5202742;28;20064;-73
2022/06/14 05:54:07;;;;;;;7.63;1.80;;;;;;;15.58;88.92;101424.22;5203804;28;20156;-73
2022/06/14 05:56:47;;;;;;;6.45;1.65;;;;;;;15.78;86.87;101422.44;5187457;28;20065;-74
2022/06/14 05:59:31;;;;;;;8.00;1.83;;;;;;;16.31;84.57;101418.28;5192720;28;20067;-73
2022/06/14 06:02:31;;;;;;;4.78;1.50;;;;;;;16.99;80.70;101418.56;5204121;28;20032;-73
2022/06/14 06:05:27;;;;;;;7.50;1.80;;;;;;;17.46;78.33;101425.06;5159949;28;20041;-73
2022/06/14 06:08:04;;;;;;;8.18;1.90;;;;;;;18.54;77.05;101412.19;5202533;28;20112;-74
2022/06/14 06:10:43;;;;;;;8.52;1.75;;;;;;;18.46;75.61;101416.19;5203756;28;20037;-73
2022/06/14 06:13:26;;;;;;;6.90;1.70;;;;;;;19.18;70.71;101420.94;5167335;28;20037;-73
2022/06/14 06:16:05;;;;;;;5.57;1.25;;;;;;;18.79;72.03;101426.63;5190231;28;20029;-73
2022/06/14 06:18:47;;;;;;;4.38;1.30;;;;;;;18.15;73.16;101416.13;5184778;28;20483;-74
2022/06/14 06:21:48;;;;;;;7.15;1.23;;;;;;;17.77;74.79;101427.81;5201402;28;20065;-73
2022/06/14 06:24:40;;;;;;;8.85;1.38;;;;;;;17.23;76.80;101438.50;5184498;28;20126;-74
2022/06/14 06:27:12;;;;;;;6.97;1.50;;;;;;;17.28;77.11;101431.22;5202112;28;20036;-75
2022/06/14 06:29:52;;;;;;;7.38;1.55;;;;;;;17.10;77.72;101426.81;5199638;28;20041;-74
2022/06/14 06:32:26;;;;;;;6.45;1.60;;;;;;;16.89;79.01;101428.72;5197690;28;20034;-74
2022/06/14 06:34:56;;;;;;;5.18;1.30;;;;;;;16.96;78.78;101429.28;5200410;28;20499;-74
2022/06/14 06:37:37;;;;;;;6.60;1.50;;;;;;;16.43;78.87;101428.31;5202105;28;20034;-75
2022/06/14 06:40:22;;;;;;;5.65;1.50;;;;;;;16.01;83.49;101435.47;5195971;28;20045;-73
2022/06/14 06:43:05;;;;;;;6.03;1.63;;;;;;;16.49;82.32;101438.56;5198946;28;20029;-73
2022/06/14 06:45:43;;;;;;;9.20;1.88;;;;;;;16.49;81.95;101437.69;5185188;28;20022;-74
2022/06/14 06:48:27;;;;;;;4.70;1.52;;;;;;;17.64;78.55;101434.69;5192532;28;20021;-73
2022/06/14 06:51:02;;;;;;;8.98;1.75;;;;;;;17.79;76.51;101433.91;5204681;28;20021;-74
2022/06/14 06:53:42;;;;;;;4.80;1.42;;;;;;;18.02;75.06;101426.47;5202161;28;20083;-75
2022/06/14 06:56:22;;;;;;;6.88;1.55;;;;;;;18.09;74.15;101432.31;5200664;28;20518;-73
2022/06/14 06:58:56;;;;;;;4.53;1.42;;;;;;;17.81;75.04;101432.88;5195120;28;20029;-74
2022/06/14 07:01:36;;;;;;;7.82;1.60;;;;;;;18.43;73.71;101421.66;5192178;28;20580;-74
2022/06/14 07:05:03;;;;;;;5.80;1.80;;;;;;;19.08;73.75;101428.50;5196306;28;20053;-73
2022/06/14 07:07:18;;;;;;;6.25;1.77;;;;;;;19.29;70.80;101413.22;5163558;28;20031;-74
2022/06/14 07:09:55;;;;;;;8.73;1.88;;;;;;;20.57;67.36;101412.38;5167283;28;20034;-73
2022/06/14 07:12:57;;;;;;;4.13;1.30;;;;;;;21.02;65.85;101415.63;5204535;28;20108;-74
2022/06/14 07:15:33;;;;;;;5.18;1.27;;;;;;;20.38;66.91;101417.13;5186082;28;20392;-74
2022/06/14 07:18:06;;;;;;;7.22;1.50;;;;;;;21.60;64.08;101407.28;5201778;28;20029;-73
2022/06/14 07:21:05;;;;;;;5.45;1.38;;;;;;;21.51;64.35;101410.56;5161017;28;20116;-72
2022/06/14 07:23:57;;;;;;;7.47;1.52;;;;;;;21.55;62.85;101418.22;5202423;28;20367;-74
2022/06/14 07:26:30;;;;;;;8.05;1.45;;;;;;;21.74;63.29;101407.25;5199631;28;20108;-72
2022/06/14 07:29:04;;;;;;;4.88;1.20;;;;;;;22.20;62.01;101408.41;5177514;28;20044;-73
2022/06/14 07:31:44;;;;;;;5.72;1.30;;;;;;;22.95;59.55;101404.66;5191201;28;20042;-73
2022/06/14 07:34:16;;;;;;;6.70;1.10;;;;;;;23.28;56.58;101396.84;5199621;28;20064;-73
2022/06/14 07:36:56;;;;;;;6.10;1.45;;;;;;;24.04;56.29;101394.53;5205677;28;20127;-72
2022/06/14 07:39:50;;;;;;;5.53;1.27;;;;;;;23.22;56.37;101396.47;5205976;28;20242;-73
2022/06/14 07:42:35;;;;;;;5.97;1.10;;;;;;;22.83;58.08;101399.38;5188174;28;20029;-73
2022/06/14 07:45:15;;;;;;;4.95;1.10;;;;;;;23.28;57.16;101396.00;5191783;28;20028;-73
2022/06/14 07:47:58;;;;;;;4.75;1.08;;;;;;;22.38;57.45;101401.78;5200070;28;20104;-72
2022/06/14 07:50:44;;;;;;;6.25;1.20;;;;;;;22.53;58.74;101398.06;5187455;28;20038;-73
2022/06/14 07:53:26;;;;;;;6.97;1.30;;;;;;;21.76;61.71;101403.50;5191144;28;20442;-73
2022/06/14 07:56:04;;;;;;;4.13;1.08;;;;;;;23.59;55.97;101390.03;5204711;28;20025;-73
2022/06/14 07:58:50;;;;;;;5.78;1.20;;;;;;;23.35;55.89;101392.75;5194948;28;20053;-74
2022/06/14 08:01:34;;;;;;;5.90;1.10;;;;;;;23.07;57.08;101403.75;5205248;28;20025;-72
2022/06/14 08:04:19;;;;;;;6.53;1.10;;;;;;;24.28;54.57;101393.47;5205050;28;20033;-73
2022/06/14 08:06:57;;;;;;;4.00;0.90;;;;;;;23.62;55.39;101396.00;5182337;28;20025;-73
2022/06/14 08:09:48;;;;;;;5.95;1.35;;;;;;;24.99;54.44;101393.88;5205570;28;20033;-73
2022/06/14 08:12:24;;;;;;;6.85;1.23;;;;;;;24.72;54.10;101396.13;5194734;28;20030;-73
2022/06/14 08:15:20;;;;;;;4.65;1.15;;;;;;;25.16;53.12;101388.00;5193564;28;20056;-72
2022/06/14 08:17:54;;;;;;;;;;;;;;;24.75;53.67;101395.88;5194317;28;20080;-73
2022/06/14 08:20:30;;;;;;;5.43;1.23;;;;;;;24.23;53.84;101394.78;5205209;28;19913;-72
2022/06/14 08:23:07;;;;;;;3.45;1.10;;;;;;;24.41;53.77;101399.50;5204932;28;20049;-73
2022/06/14 08:25:43;;;;;;;5.68;1.20;;;;;;;23.82;55.13;101407.81;5197241;28;20025;-72
2022/06/14 08:28:23;;;;;;;7.70;1.50;;;;;;;23.13;55.65;101407.78;5182573;28;20407;-73
2022/06/14 08:31:14;;;;;;;4.90;1.30;;;;;;;23.85;55.62;101395.09;5194548;28;20438;-73
2022/06/14 08:33:59;;;;;;;4.30;0.93;;;;;;;23.77;55.92;101391.28;5197697;28;20021;-73
2022/06/14 08:36:48;;;;;;;6.57;1.10;;;;;;;22.65;55.81;101399.84;5202295;28;20494;-73
2022/06/14 08:39:26;;;;;;;5.68;1.30;;;;;;;22.92;54.90;101388.88;5198029;28;20033;-73
2022/06/14 08:42:13;;;;;;;5.40;1.20;;;;;;;24.48;54.64;101392.72;5202458;28;20036;-73
2022/06/14 08:44:46;;;;;;;7.85;1.30;;;;;;;23.07;56.96;101401.09;5188816;28;20026;-71
2022/06/14 08:47:42;;;;;;;6.15;1.17;;;;;;;22.56;57.32;101403.19;5202054;28;20126;-73
2022/06/14 08:50:44;;;;;;;5.88;1.30;;;;;;;20.79;58.77;101399.41;5195991;28;20044;-73
2022/06/14 08:53:32;;;;;;;4.85;1.20;;;;;;;21.74;58.35;101401.91;5196363;28;20494;-73
2022/06/14 08:56:24;;;;;;;3.97;0.88;;;;;;;24.63;53.72;101386.19;5202282;28;20444;-73
2022/06/14 08:59:17;;;;;;;3.33;1.02;;;;;;;25.23;51.68;101391.88;5192459;28;20519;-74
2022/06/14 09:02:19;;;;;;;2.92;0.98;;;;;;;23.87;55.92;101400.34;5194096;28;20029;-74
2022/06/14 09:05:12;;;;;;;2.80;0.90;;;;;;;21.38;57.30;101407.88;5198141;28;20026;-72
2022/06/14 09:08:05;;;;;;;7.15;1.30;;;;;;;21.97;57.27;101401.19;5194974;28;20033;-74
2022/06/14 09:11:13;;;;;;;4.38;1.23;;;;;;;23.92;53.92;101388.34;5173223;28;20037;-73
2022/06/14 09:13:46;;;;;;;3.97;1.00;;;;;;;24.72;52.75;101385.41;5189353;28;20096;-74
2022/06/14 09:16:26;;;;;;;5.93;1.17;;;;;;;22.97;56.52;101397.38;5180148;28;20494;-72
2022/06/14 09:19:02;;;;;;;5.97;1.30;;;;;;;22.16;56.76;101404.25;5200652;28;20029;-72
2022/06/14 09:21:32;;;;;;;3.75;0.90;;;;;;;20.66;58.93;101411.78;5200755;28;20036;-72
2022/06/14 09:24:26;;;;;;;6.47;1.20;;;;;;;20.57;60.72;101407.06;5196790;28;20398;-73
2022/06/14 09:27:29;;;;;;;4.60;1.23;;;;;;;22.02;57.92;101404.34;5180085;28;20030;-73
2022/06/14 09:30:20;;;;;;;3.70;0.90;;;;;;;22.67;57.41;101394.28;5187944;28;20072;-73
2022/06/14 09:33:19;;;;;;;4.97;1.08;;;;;;;23.26;54.32;101388.13;5195773;28;20022;-73
2022/06/14 09:36:02;;;;;;;5.60;1.20;;;;;;;24.24;53.20;101385.81;5153203;28;20046;-73
2022/06/14 09:38:50;;;;;;;4.43;1.20;;;;;;;25.33;51.60;101382.13;5181749;28;20267;-73
2022/06/14 09:41:58;;;;;;;4.20;0.98;;;;;;;24.32;52.19;101376.22;5195283;28;20542;-74
2022/06/14 09:44:53;;;;;;;3.97;0.90;;;;;;;21.82;55.56;101395.09;5143480;28;20089;-73
2022/06/14 09:48:03;;;;;;;3.17;1.00;;;;;;;21.64;56.82;101395.50;5155540;28;20130;-73
2022/06/14 09:50:58;;;;;;;5.72;1.10;;;;;;;20.77;58.59;101396.88;5177974;28;20525;-73
2022/06/14 09:53:55;;;;;;;5.30;1.25;;;;;;;20.87;58.97;101398.00;5198511;28;20033;-73
2022/06/14 09:56:54;;;;;;;5.28;1.17;;;;;;;22.58;56.20;101385.28;5197008;28;20037;-72
2022/06/14 09:59:54;;;;;;;4.38;1.13;;;;;;;22.15;54.41;101391.91;5172470;28;20057;-72
2022/06/14 10:02:43;;;;;;;3.88;1.00;;;;;;;22.28;55.42;101390.09;5193434;28;20092;-73
2022/06/14 10:05:53;;;;;;;5.30;1.05;;;;;;;21.81;55.42;101381.88;5176417;28;20451;-73
2022/06/14 10:08:36;;;;;;;2.88;0.90;;;;;;;21.71;56.54;101383.50;5196466;28;20116;-73
2022/06/14 10:11:27;;;;;;;6.85;1.20;;;;;;;21.66;56.70;101381.16;5192163;28;20040;-72
2022/06/14 10:14:18;;;;;;;3.28;0.80;;;;;;;21.28;57.04;101384.66;5176276;28;20022;-72
2022/06/14 10:17:07;;;;;;;4.10;1.00;;;;;;;21.66;56.18;101375.81;5195380;28;20040;-72
2022/06/14 10:19:56;;;;;;;2.67;1.00;;;;;;;21.95;56.27;101384.47;5193086;28;20082;-73
2022/06/14 10:22:54;;;;;;;6.05;1.10;;;;;;;20.53;59.29;101379.00;5194422;28;20091;-72
2022/06/14 10:25:37;;;;;;;4.85;1.17;;;;;;;20.51;61.82;101375.53;5196451;28;20029;-72
2022/06/14 10:28:35;;;;;;;6.60;1.35;;;;;;;20.15;60.75;101382.34;5188660;28;20026;-71
2022/06/14 10:31:10;;;;;;;3.85;1.00;;;;;;;20.64;59.34;101376.47;5191593;28;20096;-73
2022/06/14 10:34:04;;;;;;;5.38;1.10;;;;;;;20.72;61.16;101372.38;5191232;28;20033;-73
2022/06/14 10:36:47;;;;;;;4.47;1.10;;;;;;;21.20;59.63;101371.03;5197860;28;20056;-70
2022/06/14 10:39:23;;;;;;;4.13;1.10;;;;;;;21.47;57.58;101375.34;5193719;28;20029;-72
2022/06/14 10:42:09;;;;;;;3.28;1.02;;;;;;;21.44;56.01;101364.88;5199564;28;20254;-72
2022/06/14 10:44:43;;;;;;;6.57;1.00;;;;;;;20.79;56.79;101375.50;5190156;28;20026;-73
2022/06/14 10:47:23;;;;;;;7.88;1.10;;;;;;;20.22;57.44;101373.03;5181609;28;20116;-72
2022/06/14 10:50:12;;;;;;;5.22;1.00;;;;;;;20.52;57.99;101365.78;5199989;28;20029;-70
2022/06/14 10:52:55;;;;;;;4.53;1.10;;;;;;;20.46;58.68;101369.69;5168805;28;20032;-71
2022/06/14 10:55:40;;;;;;;3.53;1.00;;;;;;;21.08;59.14;101369.16;5200300;28;20029;-71
2022/06/14 10:58:27;;;;;;;4.88;1.00;;;;;;;21.45;59.43;101371.94;5188522;28;20025;-73
2022/06/14 11:01:22;;;;;;;4.47;0.95;;;;;;;21.59;54.91;101369.16;5191199;28;20104;-71
2022/06/14 11:04:28;;;;;;;3.40;0.70;;;;;;;21.45;53.57;101363.09;5193281;28;20037;-73
2022/06/14 11:07:10;;;;;;;5.43;0.95;;;;;;;21.90;54.95;101362.63;5179899;28;20033;-73
2022/06/14 11:10:19;;;;;;;4.00;1.10;;;;;;;21.70;56.09;101360.47;5197130;28;20029;-71
2022/06/14 11:12:56;;;;;;;3.95;0.77;;;;;;;21.55;55.25;101362.34;5178547;28;20364;-71
2022/06/14 11:15:47;;;;;;;4.90;1.13;;;;;;;21.09;56.83;101362.91;5197519;28;20376;-70
2022/06/14 11:18:33;;;;;;;4.40;1.20;;;;;;;21.35;57.54;101362.84;5198404;28;20036;-71
2022/06/14 11:21:21;;;;;;;3.78;1.20;;;;;;;21.21;58.36;101359.44;5204236;28;20044;-71
2022/06/14 11:24:04;;;;;;;6.45;1.20;;;;;;;21.50;57.82;101361.81;5200249;28;20029;-73
2022/06/14 11:26:46;;;;;;;5.13;1.10;;;;;;;21.33;56.66;101353.25;5203869;28;20030;-72
2022/06/14 11:29:20;;;;;;;5.25;1.15;;;;;;;21.60;56.55;101348.75;5190732;28;20304;-70
2022/06/14 11:32:22;;;;;;;6.05;1.23;;;;;;;21.20;58.97;101352.41;5198564;28;20096;-71
2022/06/14 11:35:09;;;;;;;3.83;1.05;;;;;;;21.16;57.68;101356.19;5200195;28;20029;-70
2022/06/14 11:37:57;;;;;;;5.30;1.00;;;;;;;21.26;58.02;101350.16;5195977;28;20108;-72
2022/06/14 11:40:31;;;;;;;3.00;1.00;;;;;;;21.44;56.83;101348.91;5185945;28;20033;-70
2022/06/14 11:43:35;;;;;;;3.80;1.00;;;;;;;21.67;56.29;101345.59;5200003;28;20100;-71
2022/06/14 11:46:32;;;;;;;5.03;0.90;;;;;;;22.13;55.87;101346.75;5200159;28;20021;-72
2022/06/14 11:49:29;;;;;;;4.13;0.90;;;;;;;21.89;55.42;101334.31;5202735;28;20026;-69
2022/06/14 11:52:19;;;;;;;;;;;;;;;21.98;55.77;101336.31;5184660;28;20021;-71
2022/06/14 11:55:01;;;;;;;4.43;1.10;;;;;;;21.89;54.22;101328.97;5171972;28;20008;-70
2022/06/14 11:57:52;;;;;;;4.28;0.95;;;;;;;22.01;55.06;101336.09;5203681;28;20025;-70
2022/06/14 12:00:44;;;;;;;6.07;1.00;;;;;;;21.76;54.80;101339.63;5190928;28;20510;-73
2022/06/14 12:03:40;;;;;;;3.58;0.80;;;;;;;21.39;54.70;101340.41;5197405;28;20037;-71
2022/06/14 12:06:25;;;;;;;3.97;0.75;;;;;;;21.55;55.87;101335.75;5187220;28;20066;-72
2022/06/14 12:09:01;;;;;;;2.88;0.93;;;;;;;21.74;56.54;101336.22;5203762;28;20099;-71
2022/06/14 12:11:38;;;;;;;3.92;0.98;;;;;;;21.31;56.61;101345.41;5203808;28;20287;-71
2022/06/14 12:14:44;;;;;;;4.13;1.00;;;;;;;21.22;57.74;101342.50;5189224;28;20032;-71
2022/06/14 12:17:25;;;;;;;4.03;1.20;;;;;;;20.84;57.18;101339.72;5196157;28;20029;-71
2022/06/14 12:20:00;;;;;;;4.18;1.27;;;;;;;20.31;57.01;101337.94;5203188;28;20029;-73
2022/06/14 12:22:56;;;;;;;5.37;1.60;;;;;;;20.72;57.31;101334.34;5203303;28;20044;-72
2022/06/14 12:28:34;;;;;;;6.70;1.13;;;;;;;21.30;56.77;101329.53;5194645;28;20116;-70
2022/06/14 12:31:21;;;;;;;4.38;0.90;;;;;;;21.50;56.89;101326.38;5196284;28;20017;-72
2022/06/14 12:34:04;;;;;;;3.67;1.23;;;;;;;21.63;57.33;101321.94;5198631;28;20037;-70
2022/06/14 12:36:50;;;;;;;5.15;1.13;;;;;;;21.68;57.38;101318.00;5200732;28;20034;-70
2022/06/14 12:39:23;;;;;;;;;;;;;;;21.87;57.10;101322.88;5198789;28;20029;-71
2022/06/14 12:41:54;;;;;;;3.30;1.00;;;;;;;21.19;57.15;101321.41;5202647;28;19952;-72
2022/06/14 12:44:30;;;;;;;3.70;1.23;;;;;;;21.30;57.82;101322.44;5194141;28;20393;-71
2022/06/14 12:47:03;;;;;;;2.28;0.80;;;;;;;20.97;57.68;101313.19;5201697;28;20487;-72
2022/06/14 12:49:39;;;;;;;3.78;1.30;;;;;;;20.85;58.44;101316.66;5202687;28;20025;-70